Time;durP1;ratioP1;P1;durP2;ratioP2;P2;SDS_P1;SDS_P2;PMS_P1;PMS_P2;Temp;Humidity;BMP_temperature;BMP_pressure;BME280_temperature;BME280_humidity;BME280_pressure;Samples;Min_cycle;Max_cycle;Signal;HPM_P1;HPM_P2
2023/01/25 00:02:00;;;;;;;49.72;38.95;;;1.80;99.90;;;;;;5073722;28;20033;-69
2023/01/25 00:04:26;;;;;;;48.60;37.38;;;1.80;99.90;;;;;;5073922;28;20098;-69
2023/01/25 00:06:51;;;;;;;46.80;36.67;;;1.80;99.90;;;;;;5073634;28;20448;-69
2023/01/25 00:09:18;;;;;;;46.83;37.05;;;1.80;99.90;;;;;;5073505;28;20040;-69
2023/01/25 00:11:44;;;;;;;52.25;38.88;;;1.80;99.90;;;;;;5073538;28;20615;-69
2023/01/25 00:14:11;;;;;;;55.45;42.60;;;1.80;99.90;;;;;;5073461;28;20044;-69
2023/01/25 00:16:38;;;;;;;53.35;41.03;;;1.80;99.90;;;;;;5073356;28;20051;-69
2023/01/25 00:19:04;;;;;;;51.42;40.10;;;1.80;99.90;;;;;;5073293;28;20539;-69
2023/01/25 00:21:30;;;;;;;49.33;39.08;;;1.80;99.90;;;;;;5073383;28;20047;-69
2023/01/25 00:23:56;;;;;;;50.42;38.28;;;1.70;99.90;;;;;;5074475;28;20041;-69
2023/01/25 00:26:21;;;;;;;53.35;39.92;;;1.70;99.90;;;;;;5073237;28;20123;-69
2023/01/25 00:28:54;;;;;;;49.58;38.58;;;1.60;99.90;;;;;;5073370;28;20055;-69
2023/01/25 00:31:39;;;;;;;49.38;38.67;;;1.60;99.90;;;;;;5073155;28;20055;-69
2023/01/25 00:34:23;;;;;;;48.53;37.70;;;1.60;99.90;;;;;;5073111;28;20062;-69
2023/01/25 00:37:11;;;;;;;47.97;37.33;;;1.50;99.90;;;;;;5072965;28;20072;-69
2023/01/25 00:39:38;;;;;;;47.72;36.83;;;1.40;99.90;;;;;;5072940;28;20045;-69
2023/01/25 00:42:04;;;;;;;48.15;36.67;;;1.40;99.90;;;;;;5072101;28;20040;-69
2023/01/25 00:44:29;;;;;;;48.00;37.67;;;1.40;99.90;;;;;;5072946;28;20516;-69
2023/01/25 00:46:55;;;;;;;46.40;36.63;;;1.40;99.90;;;;;;5074033;28;20041;-69
2023/01/25 00:49:26;;;;;;;47.72;36.97;;;1.50;99.90;;;;;;5074150;28;20044;-69
2023/01/25 00:51:54;;;;;;;45.55;35.80;;;1.40;99.90;;;;;;5072750;28;20111;-69
2023/01/25 00:54:20;;;;;;;46.90;36.60;;;1.40;99.90;;;;;;5072899;28;20141;-69
2023/01/25 00:56:46;;;;;;;48.17;36.75;;;1.40;99.90;;;;;;5072581;28;20489;-69
2023/01/25 00:59:13;;;;;;;46.53;35.97;;;1.30;99.90;;;;;;5072532;28;20086;-69
2023/01/25 01:01:40;;;;;;;48.42;36.47;;;1.30;99.90;;;;;;5072799;28;20498;-69
2023/01/25 01:04:06;;;;;;;49.03;36.65;;;1.20;99.90;;;;;;5072455;28;20119;-69
2023/01/25 01:06:35;;;;;;;45.17;34.70;;;1.20;99.90;;;;;;5072473;28;20115;-69
2023/01/25 01:09:01;;;;;;;47.30;36.08;;;1.20;99.90;;;;;;5072359;28;20048;-69
2023/01/25 01:11:26;;;;;;;48.28;35.92;;;1.10;99.90;;;;;;5072359;28;20119;-69
2023/01/25 01:13:52;;;;;;;48.83;37.50;;;1.20;99.90;;;;;;5072565;28;20109;-69
2023/01/25 01:16:17;;;;;;;48.25;37.10;;;1.20;99.90;;;;;;5072198;28;20502;-69
2023/01/25 01:18:44;;;;;;;47.72;36.67;;;1.20;99.90;;;;;;5055535;28;20042;-69
2023/01/25 01:21:12;;;;;;;51.35;39.25;;;1.30;99.90;;;;;;5072190;28;20047;-69
2023/01/25 01:23:38;;;;;;;47.85;37.20;;;1.30;99.90;;;;;;5072432;28;20051;-69
2023/01/25 01:26:06;;;;;;;51.67;39.03;;;1.30;99.90;;;;;;5072144;28;20045;-69
2023/01/25 01:28:34;;;;;;;50.75;37.83;;;1.30;99.90;;;;;;5072118;28;20506;-69
2023/01/25 01:31:04;;;;;;;53.40;39.33;;;1.20;99.90;;;;;;5072006;28;20162;-69
2023/01/25 01:33:30;;;;;;;49.65;38.08;;;1.10;99.90;;;;;;5072317;28;20141;-69
2023/01/25 01:35:56;;;;;;;50.35;38.25;;;1.10;99.90;;;;;;5071943;28;20513;-69
2023/01/25 01:38:21;;;;;;;48.25;36.25;;;1.00;99.90;;;;;;5072021;28;20157;-69
2023/01/25 01:40:48;;;;;;;50.97;37.33;;;1.00;99.90;;;;;;5072166;28;20041;-69
2023/01/25 01:43:22;;;;;;;49.38;37.08;;;1.00;99.90;;;;;;5071986;28;20055;-69
2023/01/25 01:45:48;;;;;;;51.95;39.03;;;1.10;99.90;;;;;;5072141;28;20533;-69
2023/01/25 01:48:47;;;;;;;50.78;38.17;;;1.00;99.90;;;;;;5072147;28;20044;-69
2023/01/25 01:51:26;;;;;;;54.47;40.25;;;1.10;99.90;;;;;;5071815;28;20043;-69
2023/01/25 01:54:04;;;;;;;52.22;40.10;;;1.00;99.90;;;;;;5071605;28;20044;-69
2023/01/25 01:56:45;;;;;;;51.90;39.60;;;1.00;99.90;;;;;;5071929;28;20098;-69
2023/01/25 01:59:11;;;;;;;52.00;39.10;;;1.00;99.90;;;;;;5071755;28;20045;-69
2023/01/25 02:01:37;;;;;;;52.38;39.22;;;1.00;99.90;;;;;;5071746;28;20040;-69
2023/01/25 02:04:05;;;;;;;52.75;39.85;;;1.10;99.90;;;;;;5071725;28;20040;-69
2023/01/25 02:06:39;;;;;;;50.88;38.95;;;1.10;99.90;;;;;;5071703;28;20036;-69
2023/01/25 02:09:05;;;;;;;50.70;39.03;;;1.20;99.90;;;;;;5071665;28;20090;-69
2023/01/25 02:11:32;;;;;;;49.10;38.05;;;1.20;99.90;;;;;;5071910;28;20113;-69
2023/01/25 02:13:59;;;;;;;52.72;39.53;;;1.20;99.90;;;;;;5071911;28;20048;-69
2023/01/25 02:16:27;;;;;;;51.50;38.45;;;1.20;99.90;;;;;;5071717;28;20560;-69
2023/01/25 02:18:54;;;;;;;49.20;37.15;;;1.20;99.90;;;;;;5071476;28;20432;-69
2023/01/25 02:21:22;;;;;;;52.30;38.65;;;1.20;99.90;;;;;;5071550;28;20397;-69
2023/01/25 02:23:59;;;;;;;50.55;38.55;;;1.20;99.90;;;;;;5071568;28;20086;-69
2023/01/25 02:26:25;;;;;;;50.20;38.25;;;1.20;99.90;;;;;;5071533;28;20082;-69
2023/01/25 02:29:03;;;;;;;49.38;37.38;;;1.20;99.90;;;;;;5071414;28;20068;-69
2023/01/25 02:31:29;;;;;;;50.08;37.03;;;1.20;99.90;;;;;;5071477;28;20037;-69
2023/01/25 02:33:54;;;;;;;48.75;37.50;;;1.30;99.90;;;;;;5071438;28;20040;-69
2023/01/25 02:36:25;;;;;;;49.90;38.70;;;1.30;99.90;;;;;;5071337;28;20134;-69
2023/01/25 02:38:54;;;;;;;44.97;36.75;;;1.30;99.90;;;;;;5071367;28;20120;-69
2023/01/25 02:41:31;;;;;;;52.63;39.75;;;1.30;99.90;;;;;;5071346;28;20090;-69
2023/01/25 02:43:57;;;;;;;47.85;38.08;;;1.30;99.90;;;;;;5071627;28;20040;-69
2023/01/25 02:46:49;;;;;;;52.22;39.13;;;1.20;99.90;;;;;;5071310;28;20036;-69
2023/01/25 02:49:16;;;;;;;54.00;40.17;;;1.30;99.90;;;;;;5068815;28;20139;-69
2023/01/25 02:51:43;;;;;;;49.65;38.60;;;1.20;99.90;;;;;;5071221;28;20063;-69
2023/01/25 02:54:11;;;;;;;49.50;38.42;;;1.20;99.90;;;;;;5071511;28;20036;-69
2023/01/25 02:56:39;;;;;;;49.25;37.88;;;1.20;99.90;;;;;;5071288;28;20040;-69
2023/01/25 02:59:05;;;;;;;48.30;38.45;;;1.20;99.90;;;;;;5071635;28;20083;-69
2023/01/25 03:01:33;;;;;;;50.53;39.00;;;1.20;99.90;;;;;;5071188;28;20072;-69
2023/01/25 03:03:58;;;;;;;48.80;37.40;;;1.20;99.90;;;;;;5054736;28;20083;-69
2023/01/25 03:06:24;;;;;;;50.13;38.42;;;1.30;99.90;;;;;;5072880;28;20444;-69
2023/01/25 03:08:49;;;;;;;51.42;39.75;;;1.30;99.90;;;;;;5074658;28;20123;-69
2023/01/25 03:11:15;;;;;;;51.15;38.88;;;1.20;99.90;;;;;;5074689;28;20056;-69
2023/01/25 03:13:40;;;;;;;48.70;38.40;;;1.20;99.90;;;;;;5074618;28;20032;-69
2023/01/25 03:16:09;;;;;;;50.42;39.80;;;1.30;99.90;;;;;;5074564;28;20048;-69
2023/01/25 03:18:36;;;;;;;50.67;39.50;;;1.20;99.90;;;;;;5074798;28;20040;-69
2023/01/25 03:21:10;;;;;;;50.03;39.67;;;1.30;99.90;;;;;;5074451;28;20040;-69
2023/01/25 03:23:36;;;;;;;48.50;38.33;;;1.20;99.90;;;;;;5074432;28;20048;-69
2023/01/25 03:26:10;;;;;;;50.00;38.97;;;1.20;99.90;;;;;;5074406;28;20036;-69
2023/01/25 03:28:36;;;;;;;47.15;36.33;;;1.30;99.90;;;;;;5074635;28;20044;-69
2023/01/25 03:31:02;;;;;;;53.42;40.25;;;1.20;99.90;;;;;;5075524;28;20040;-69
2023/01/25 03:33:28;;;;;;;49.58;38.80;;;1.20;99.90;;;;;;5074246;28;20123;-69
2023/01/25 03:35:54;;;;;;;50.50;38.28;;;1.20;99.90;;;;;;5074198;28;20048;-68
2023/01/25 03:38:21;;;;;;;48.65;38.60;;;1.20;99.90;;;;;;5074504;28;20099;-68
2023/01/25 03:40:47;;;;;;;49.92;39.15;;;1.10;99.90;;;;;;5074097;28;20041;-68
2023/01/25 03:43:13;;;;;;;52.90;38.78;;;1.10;99.90;;;;;;5074102;28;20051;-69
2023/01/25 03:45:38;;;;;;;48.85;38.35;;;1.10;99.90;;;;;;5074077;28;20036;-69
2023/01/25 03:48:04;;;;;;;52.25;40.45;;;1.10;99.90;;;;;;5074273;28;20119;-69
2023/01/25 03:50:30;;;;;;;51.38;39.67;;;1.10;99.90;;;;;;5073810;28;20076;-69
2023/01/25 03:53:01;;;;;;;47.08;37.88;;;1.00;99.90;;;;;;5075207;28;20094;-69
2023/01/25 03:55:27;;;;;;;55.50;40.38;;;1.00;99.90;;;;;;5073884;28;20054;-69
2023/01/25 03:57:52;;;;;;;51.20;39.45;;;1.00;99.90;;;;;;5073813;28;20051;-69
2023/01/25 04:00:21;;;;;;;52.67;40.58;;;1.00;99.90;;;;;;5073733;28;20041;-69
2023/01/25 04:02:46;;;;;;;52.92;39.90;;;1.00;99.90;;;;;;5073998;28;20504;-69
2023/01/25 04:05:12;;;;;;;50.85;39.55;;;1.00;99.90;;;;;;5073688;28;20037;-69
2023/01/25 04:07:38;;;;;;;53.08;40.08;;;0.90;99.90;;;;;;5073642;28;20056;-69
2023/01/25 04:10:05;;;;;;;53.13;40.58;;;0.90;99.90;;;;;;5073508;28;20048;-69
2023/01/25 04:12:31;;;;;;;58.10;41.65;;;0.90;99.90;;;;;;5073475;28;20125;-69
2023/01/25 04:14:56;;;;;;;53.08;38.75;;;0.80;99.90;;;;;;5073454;28;20067;-69
2023/01/25 04:17:22;;;;;;;54.88;41.00;;;0.70;99.90;;;;;;5056615;28;20123;-69
2023/01/25 04:19:48;;;;;;;49.47;37.90;;;0.70;99.90;;;;;;5073311;28;20036;-69
2023/01/25 04:22:15;;;;;;;51.08;39.22;;;0.80;99.90;;;;;;5073618;28;20043;-69
2023/01/25 04:24:41;;;;;;;48.58;37.17;;;0.80;99.90;;;;;;5074550;28;20050;-69
2023/01/25 04:27:07;;;;;;;51.33;39.00;;;0.80;99.90;;;;;;5073490;28;20040;-69
2023/01/25 04:29:33;;;;;;;51.92;40.50;;;0.70;99.90;;;;;;5073382;28;20036;-69
2023/01/25 04:31:59;;;;;;;49.75;37.78;;;0.70;99.90;;;;;;5073401;28;20040;-69
2023/01/25 04:34:25;;;;;;;47.97;37.25;;;0.70;99.90;;;;;;5073111;28;20390;-69
2023/01/25 04:36:50;;;;;;;48.33;37.63;;;0.70;99.90;;;;;;5074479;28;20036;-69
2023/01/25 04:39:16;;;;;;;47.55;37.38;;;0.70;99.90;;;;;;5072957;28;20040;-69
2023/01/25 04:41:41;;;;;;;49.47;38.10;;;0.70;99.90;;;;;;5072953;28;20051;-69
2023/01/25 04:44:07;;;;;;;46.42;36.30;;;0.70;99.90;;;;;;5072953;28;20051;-69
2023/01/25 04:46:33;;;;;;;47.95;35.80;;;0.70;99.90;;;;;;5072859;28;20090;-69
2023/01/25 04:48:58;;;;;;;47.08;36.20;;;0.60;99.90;;;;;;5073300;28;20101;-69
2023/01/25 04:51:24;;;;;;;49.20;36.33;;;0.60;99.90;;;;;;5072669;28;20055;-69
2023/01/25 04:53:49;;;;;;;43.28;33.08;;;0.50;99.90;;;;;;5056087;28;20049;-69
2023/01/25 04:56:15;;;;;;;43.28;33.15;;;0.50;99.90;;;;;;5072580;28;20051;-69
2023/01/25 04:58:40;;;;;;;46.35;34.75;;;0.40;99.90;;;;;;5074120;28;20028;-69
2023/01/25 05:01:06;;;;;;;41.65;32.40;;;0.40;99.90;;;;;;5072813;28;20500;-69
2023/01/25 05:03:32;;;;;;;46.72;35.13;;;0.40;99.90;;;;;;5074052;28;20123;-69
2023/01/25 05:05:58;;;;;;;44.03;33.70;;;0.40;99.90;;;;;;5056100;28;20043;-69
2023/01/25 05:08:25;;;;;;;45.45;33.90;;;0.40;99.90;;;;;;5072436;28;20044;-69
2023/01/25 05:10:50;;;;;;;45.05;33.22;;;0.40;99.90;;;;;;5073583;28;20111;-69
2023/01/25 05:13:16;;;;;;;43.83;32.92;;;0.40;99.90;;;;;;5055690;28;20135;-69
2023/01/25 05:15:41;;;;;;;43.80;33.17;;;0.40;99.90;;;;;;5072590;28;20044;-69
2023/01/25 05:18:07;;;;;;;44.05;34.13;;;0.40;99.90;;;;;;5072196;28;20463;-69
2023/01/25 05:20:33;;;;;;;47.25;34.72;;;0.40;99.90;;;;;;5072428;28;20043;-69
2023/01/25 05:22:58;;;;;;;45.97;33.75;;;0.40;99.90;;;;;;5072193;28;20086;-69
2023/01/25 05:28:08;;;;;;;43.15;31.80;;;0.50;99.90;;;;;;5071739;28;20048;-69
2023/01/25 05:30:34;;;;;;;42.75;32.42;;;0.50;99.90;;;;;;5071976;28;20048;-69
2023/01/25 05:32:59;;;;;;;46.50;33.42;;;0.50;99.90;;;;;;5072067;28;20051;-69
2023/01/25 05:35:25;;;;;;;43.10;32.80;;;0.50;99.90;;;;;;5073288;28;20071;-69
2023/01/25 05:37:55;;;;;;;43.20;32.55;;;0.50;99.90;;;;;;5071938;28;20045;-69
2023/01/25 05:40:21;;;;;;;43.33;32.92;;;0.50;99.90;;;;;;5072224;28;20097;-69
2023/01/25 05:42:53;;;;;;;44.08;33.10;;;0.50;99.90;;;;;;5073210;28;20041;-69
2023/01/25 05:45:19;;;;;;;43.92;33.33;;;0.50;99.90;;;;;;5072194;28;20127;-69
2023/01/25 05:47:44;;;;;;;44.75;33.28;;;0.40;99.90;;;;;;5073435;28;20536;-69
2023/01/25 05:50:10;;;;;;;49.03;33.20;;;0.40;99.90;;;;;;5071877;28;20051;-69
2023/01/25 05:52:35;;;;;;;41.85;31.17;;;0.40;99.90;;;;;;5071879;28;20040;-69
2023/01/25 05:55:01;;;;;;;45.80;32.70;;;0.30;99.90;;;;;;5071799;28;20040;-69
2023/01/25 05:57:27;;;;;;;44.90;32.78;;;0.40;99.90;;;;;;5071712;28;20036;-69
2023/01/25 05:59:53;;;;;;;42.28;32.38;;;0.30;99.90;;;;;;5073476;28;20374;-69
2023/01/25 06:02:19;;;;;;;46.38;34.45;;;0.40;99.90;;;;;;5071690;28;20043;-69
2023/01/25 06:04:44;;;;;;;45.30;34.22;;;0.40;99.90;;;;;;5071724;28;20043;-69
2023/01/25 06:07:10;;;;;;;44.45;32.92;;;0.40;99.90;;;;;;5071951;28;20041;-69
2023/01/25 06:09:36;;;;;;;41.47;30.95;;;0.40;99.90;;;;;;5071598;28;20555;-69
2023/01/25 06:12:02;;;;;;;46.10;34.45;;;0.30;99.90;;;;;;5071646;28;20094;-69
2023/01/25 06:14:28;;;;;;;49.45;34.22;;;0.40;99.90;;;;;;5071910;28;20048;-69
2023/01/25 06:16:54;;;;;;;48.17;35.63;;;0.40;99.90;;;;;;5071664;28;20049;-69
2023/01/25 06:19:19;;;;;;;47.42;33.88;;;0.40;99.90;;;;;;5071797;28;20079;-69
2023/01/25 06:21:45;;;;;;;45.47;33.83;;;0.30;99.90;;;;;;5071542;28;20481;-69
2023/01/25 06:24:10;;;;;;;49.50;36.03;;;0.30;99.90;;;;;;5054861;28;20044;-69
2023/01/25 06:26:39;;;;;;;45.28;33.55;;;0.30;99.90;;;;;;5072729;28;20041;-69
2023/01/25 06:29:05;;;;;;;48.88;35.60;;;0.30;99.90;;;;;;5071440;28;20052;-69
2023/01/25 06:31:31;;;;;;;44.80;33.85;;;0.30;99.90;;;;;;5071492;28;20045;-69
2023/01/25 06:33:59;;;;;;;47.22;35.00;;;0.40;99.90;;;;;;5071335;28;20047;-69
2023/01/25 06:36:24;;;;;;;46.33;34.03;;;0.30;99.90;;;;;;5071327;28;20045;-69
2023/01/25 06:38:51;;;;;;;53.65;36.30;;;0.30;99.90;;;;;;5071596;28;20041;-69
2023/01/25 06:41:17;;;;;;;46.33;35.28;;;0.30;99.90;;;;;;5073360;28;20044;-69
2023/01/25 06:43:43;;;;;;;48.95;35.13;;;0.20;99.90;;;;;;5075177;28;20047;-69
2023/01/25 06:46:10;;;;;;;52.90;36.08;;;0.30;99.90;;;;;;5075140;28;20112;-69
2023/01/25 06:48:37;;;;;;;46.75;34.33;;;0.30;99.90;;;;;;5075341;28;20045;-69
2023/01/25 06:51:05;;;;;;;50.10;35.85;;;0.30;99.90;;;;;;5075110;28;20067;-69
2023/01/25 06:53:34;;;;;;;47.38;34.53;;;0.30;99.90;;;;;;5075053;28;20086;-69
2023/01/25 06:56:05;;;;;;;48.42;33.70;;;0.30;99.90;;;;;;5075124;28;20040;-69
2023/01/25 06:58:32;;;;;;;51.00;35.65;;;0.30;99.90;;;;;;5074940;28;20119;-69
2023/01/25 07:01:04;;;;;;;47.65;34.60;;;0.30;99.90;;;;;;5074829;28;20036;-69
2023/01/25 07:03:31;;;;;;;44.60;33.70;;;0.30;99.90;;;;;;5075108;28;20044;-69
2023/01/25 07:05:59;;;;;;;48.97;35.45;;;0.30;99.90;;;;;;5075077;28;20047;-69
2023/01/25 07:08:24;;;;;;;49.53;36.05;;;0.30;99.90;;;;;;5074747;28;20056;-69
2023/01/25 07:10:55;;;;;;;47.70;35.47;;;0.30;99.90;;;;;;5074622;28;20037;-69
2023/01/25 07:13:20;;;;;;;51.80;35.50;;;0.30;99.90;;;;;;5074654;28;20045;-69
2023/01/25 07:15:52;;;;;;;50.65;36.10;;;0.30;99.90;;;;;;5074648;28;20048;-69
2023/01/25 07:18:18;;;;;;;46.90;33.63;;;0.20;99.90;;;;;;5074879;28;20404;-69
2023/01/25 07:20:43;;;;;;;50.28;35.88;;;0.20;99.90;;;;;;5074746;28;20037;-69
2023/01/25 07:23:09;;;;;;;49.85;35.55;;;0.20;99.90;;;;;;5076284;28;20432;-69
2023/01/25 07:25:34;;;;;;;49.72;35.22;;;0.10;99.90;;;;;;5057831;28;20508;-69
2023/01/25 07:28:00;;;;;;;50.30;35.80;;;0.20;99.90;;;;;;5074460;28;20047;-69
2023/01/25 07:30:25;;;;;;;51.20;36.38;;;0.20;99.90;;;;;;5074562;28;20072;-69
2023/01/25 07:32:51;;;;;;;55.38;38.17;;;0.10;99.90;;;;;;5074348;28;20517;-69
2023/01/25 07:35:16;;;;;;;51.50;36.63;;;0.10;99.90;;;;;;5074266;28;20044;-69
2023/01/25 07:37:42;;;;;;;49.75;34.92;;;0.10;99.90;;;;;;5074184;28;20041;-69
2023/01/25 07:40:08;;;;;;;50.85;35.60;;;0.20;99.90;;;;;;5074413;28;20033;-69
2023/01/25 07:42:34;;;;;;;54.35;37.00;;;0.20;99.90;;;;;;5074165;28;20040;-69
2023/01/25 07:45:00;;;;;;;50.97;36.75;;;0.10;99.90;;;;;;5074115;28;20037;-69
2023/01/25 07:47:26;;;;;;;49.10;34.72;;;0.20;99.90;;;;;;5074060;28;20056;-69
2023/01/25 07:49:53;;;;;;;50.60;34.45;;;0.30;99.90;;;;;;5074134;28;20041;-69
2023/01/25 07:52:19;;;;;;;46.75;32.95;;;0.30;99.90;;;;;;5075284;28;20044;-69
2023/01/25 07:54:46;;;;;;;43.97;31.77;;;0.20;99.90;;;;;;5073895;28;20051;-69
2023/01/25 07:57:11;;;;;;;48.50;34.35;;;0.20;99.90;;;;;;5073813;28;20044;-69
2023/01/25 07:59:37;;;;;;;50.15;34.25;;;0.20;99.90;;;;;;5073748;28;20043;-69
2023/01/25 08:02:02;;;;;;;47.95;34.20;;;0.20;99.90;;;;;;5074057;28;20037;-69
2023/01/25 08:04:28;;;;;;;47.13;33.45;;;0.20;99.90;;;;;;5073724;28;20485;-69
2023/01/25 08:06:55;;;;;;;49.80;34.50;;;0.20;99.90;;;;;;5073948;28;20044;-69
2023/01/25 08:09:21;;;;;;;49.03;35.15;;;0.20;99.90;;;;;;5073596;28;20068;-69
2023/01/25 08:11:48;;;;;;;48.78;34.22;;;0.20;99.90;;;;;;5073825;28;20142;-69
2023/01/25 08:14:13;;;;;;;51.08;35.55;;;0.20;99.90;;;;;;5073517;28;20048;-69
2023/01/25 08:16:39;;;;;;;48.97;34.50;;;0.30;99.90;;;;;;5073413;28;20045;-69
2023/01/25 08:19:05;;;;;;;50.45;35.50;;;0.20;99.90;;;;;;5073366;28;20045;-69
2023/01/25 08:21:32;;;;;;;50.90;35.28;;;0.30;99.90;;;;;;5073383;28;20036;-69
2023/01/25 08:23:59;;;;;;;52.50;35.65;;;0.30;99.90;;;;;;5073335;28;20076;-69
2023/01/25 08:26:26;;;;;;;54.47;36.17;;;0.20;99.90;;;;;;5074510;28;20047;-69
2023/01/25 08:28:52;;;;;;;50.72;35.50;;;0.30;99.90;;;;;;5056487;28;20051;-69
2023/01/25 08:31:27;;;;;;;52.88;36.58;;;0.30;99.90;;;;;;5073138;28;20041;-70
2023/01/25 08:33:54;;;;;;;50.45;35.58;;;0.40;99.90;;;;;;5073180;28;20051;-69
2023/01/25 08:36:22;;;;;;;56.03;38.70;;;0.40;99.90;;;;;;5073013;28;20050;-69
2023/01/25 08:38:59;;;;;;;49.83;35.90;;;0.30;99.90;;;;;;5072976;28;20050;-69
2023/01/25 08:41:26;;;;;;;53.55;37.10;;;0.30;99.90;;;;;;5073302;28;20040;-69
2023/01/25 08:43:53;;;;;;;54.55;36.78;;;0.40;99.90;;;;;;5072940;28;20550;-69
2023/01/25 08:46:20;;;;;;;52.20;35.90;;;0.40;99.90;;;;;;5056256;28;20080;-69
2023/01/25 08:48:45;;;;;;;53.08;36.97;;;0.40;99.90;;;;;;5072749;28;20045;-69
2023/01/25 08:51:15;;;;;;;52.60;36.78;;;0.40;99.90;;;;;;5074064;28;20033;-69
2023/01/25 08:53:41;;;;;;;53.42;36.38;;;0.40;99.90;;;;;;5073196;28;20032;-69
2023/01/25 08:56:12;;;;;;;57.53;38.65;;;0.40;99.90;;;;;;5072838;28;20547;-69
2023/01/25 08:58:41;;;;;;;57.60;37.30;;;0.30;99.90;;;;;;5073069;28;20127;-69
2023/01/25 09:01:09;;;;;;;53.45;37.33;;;0.20;99.90;;;;;;5072593;28;20481;-69
2023/01/25 09:03:40;;;;;;;59.55;39.28;;;0.30;99.90;;;;;;5071742;28;20037;-69
2023/01/25 09:06:07;;;;;;;52.75;35.92;;;0.20;99.90;;;;;;5056272;28;20125;-69
2023/01/25 09:08:33;;;;;;;55.55;36.38;;;0.20;99.90;;;;;;5072772;28;20496;-69
2023/01/25 09:11:04;;;;;;;54.05;34.42;;;0.10;99.90;;;;;;5072390;28;20090;-69
2023/01/25 09:13:30;;;;;;;51.72;33.95;;;0.20;99.90;;;;;;5072435;28;20051;-69
2023/01/25 09:16:06;;;;;;;52.30;33.75;;;0.20;99.90;;;;;;5072271;28;20047;-69
2023/01/25 09:18:34;;;;;;;50.05;32.85;;;0.20;99.90;;;;;;5055732;28;20036;-69
2023/01/25 09:21:08;;;;;;;49.47;33.90;;;0.20;99.90;;;;;;5072158;28;20405;-69
2023/01/25 09:23:35;;;;;;;52.42;34.28;;;0.20;99.90;;;;;;5072534;28;20052;-69
2023/01/25 09:26:01;;;;;;;49.25;33.40;;;0.30;99.90;;;;;;5055539;28;20094;-69
2023/01/25 09:28:28;;;;;;;50.92;34.17;;;0.30;99.90;;;;;;5072151;28;20032;-69
2023/01/25 09:31:05;;;;;;;49.15;33.35;;;0.30;99.90;;;;;;5072052;28;20064;-68
2023/01/25 09:33:36;;;;;;;46.15;32.28;;;0.30;99.90;;;;;;5072136;28;20119;-69
2023/01/25 09:36:02;;;;;;;49.80;32.90;;;0.20;99.90;;;;;;5072202;28;20485;-69
2023/01/25 09:38:28;;;;;;;51.25;32.95;;;0.20;99.90;;;;;;5072022;28;20497;-69
2023/01/25 09:41:15;;;;;;;51.03;33.20;;;0.30;99.90;;;;;;5071956;28;20123;-69
2023/01/25 09:44:04;;;;;;;50.88;33.40;;;0.20;99.90;;;;;;5072224;28;20501;-69
2023/01/25 09:46:43;;;;;;;55.63;35.38;;;0.10;99.90;;;;;;5071964;28;20079;-69
2023/01/25 09:49:12;;;;;;;48.72;32.33;;;0.10;99.90;;;;;;5071898;28;20048;-69
2023/01/25 09:52:00;;;;;;;48.50;32.45;;;0.10;99.90;;;;;;5071780;28;20044;-68
2023/01/25 09:54:30;;;;;;;52.05;33.58;;;0.20;99.90;;;;;;5055127;28;20047;-68
2023/01/25 09:56:58;;;;;;;50.65;32.90;;;0.20;99.90;;;;;;5071737;28;20048;-69
2023/01/25 09:59:29;;;;;;;50.72;33.58;;;0.20;99.90;;;;;;5071650;28;20493;-69
2023/01/25 10:02:24;;;;;;;52.35;33.22;;;0.30;99.90;;;;;;5071969;28;20123;-69
2023/01/25 10:04:52;;;;;;;50.50;32.65;;;0.20;99.90;;;;;;5071764;28;20072;-69
2023/01/25 10:07:20;;;;;;;52.78;33.47;;;0.10;99.90;;;;;;5072980;28;20048;-69
2023/01/25 10:10:00;;;;;;;56.08;35.65;;;0.30;99.90;;;;;;5071845;28;20044;-69
2023/01/25 10:12:34;;;;;;;55.70;35.42;;;0.30;99.90;;;;;;5071958;28;20048;-69
2023/01/25 10:14:59;;;;;;;53.13;34.83;;;0.20;99.90;;;;;;5072957;28;20094;-69
2023/01/25 10:17:38;;;;;;;48.63;33.65;;;0.20;99.90;;;;;;5059047;28;20041;-69
2023/01/25 10:20:25;;;;;;;56.17;34.97;;;0.30;99.90;;;;;;5075714;28;20036;-69
2023/01/25 10:23:14;;;;;;;56.42;35.90;;;0.30;99.90;;;;;;5075699;28;20516;-69
2023/01/25 10:25:57;;;;;;;54.03;33.55;;;0.30;99.90;;;;;;5075677;28;20118;-69
2023/01/25 10:28:57;;;;;;;51.03;32.97;;;0.30;99.90;;;;;;5075840;28;20067;-69
2023/01/25 10:31:52;;;;;;;48.45;32.15;;;0.30;99.90;;;;;;5075499;28;20043;-69
2023/01/25 10:34:31;;;;;;;50.15;32.58;;;0.30;99.90;;;;;;5077254;28;20047;-69
2023/01/25 10:37:03;;;;;;;48.47;31.98;;;0.20;99.90;;;;;;5075384;28;20091;-70
2023/01/25 10:39:31;;;;;;;48.75;32.45;;;0.10;99.90;;;;;;5075518;28;20136;-70
2023/01/25 10:42:16;;;;;;;51.80;32.22;;;0.10;99.90;;;;;;5075894;28;20067;-70
2023/01/25 10:44:42;;;;;;;50.30;32.28;;;0.20;99.90;;;;;;5075305;28;20077;-70
2023/01/25 10:47:20;;;;;;;52.85;32.88;;;0.30;99.90;;;;;;5058766;28;20049;-70
2023/01/25 10:49:57;;;;;;;47.92;30.75;;;0.30;99.90;;;;;;5075200;28;20032;-70
2023/01/25 10:52:28;;;;;;;50.35;31.95;;;0.20;99.90;;;;;;5075641;28;20465;-70
2023/01/25 10:55:14;;;;;;;50.50;32.17;;;0.30;99.90;;;;;;5075065;28;20051;-70
2023/01/25 10:57:50;;;;;;;47.90;29.67;;;0.20;99.90;;;;;;5074912;28;20044;-71
2023/01/25 11:00:24;;;;;;;46.83;30.13;;;0.30;99.90;;;;;;5058180;28;20079;-71
2023/01/25 11:02:49;;;;;;;53.05;31.40;;;0.30;99.90;;;;;;5075222;28;20059;-71
2023/01/25 11:05:24;;;;;;;51.03;30.65;;;0.20;99.90;;;;;;5075114;28;20492;-71
2023/01/25 11:07:50;;;;;;;54.22;32.28;;;0.30;99.90;;;;;;5074842;28;20045;-71
2023/01/25 11:10:36;;;;;;;48.70;30.55;;;0.30;99.90;;;;;;5074940;28;20110;-71
2023/01/25 11:13:28;;;;;;;56.63;32.03;;;0.30;99.90;;;;;;5074973;28;20040;-70
2023/01/25 11:16:03;;;;;;;54.15;31.38;;;0.30;99.90;;;;;;5074944;28;20097;-71
2023/01/25 11:18:33;;;;;;;55.53;32.03;;;0.20;99.90;;;;;;5074587;28;20048;-71
2023/01/25 11:21:17;;;;;;;53.85;31.38;;;0.20;99.90;;;;;;5075678;28;20043;-71
2023/01/25 11:23:56;;;;;;;56.65;31.75;;;0.20;99.90;;;;;;5074588;28;20512;-71
2023/01/25 11:26:21;;;;;;;64.25;34.25;;;0.10;99.90;;;;;;5073568;28;20051;-71
2023/01/25 11:28:47;;;;;;;57.38;32.50;;;0.10;99.90;;;;;;5074391;28;20037;-71
2023/01/25 11:31:20;;;;;;;57.83;32.10;;;0.10;99.90;;;;;;5074405;28;20052;-70
2023/01/25 11:33:46;;;;;;;40.83;23.77;;;0.20;99.90;;;;;;5074440;28;20044;-71
2023/01/25 11:36:18;;;;;;;61.47;32.45;;;0.20;99.90;;;;;;5074207;28;20044;-71
2023/01/25 11:39:17;;;;;;;57.70;31.95;;;0.20;99.90;;;;;;5074157;28;20051;-71
2023/01/25 11:42:17;;;;;;;58.22;32.90;;;0.20;99.90;;;;;;5034038;28;20137;-71
2023/01/25 11:44:56;;;;;;;61.00;31.63;;;0.10;99.90;;;;;;5074487;28;20055;-70
2023/01/25 11:47:46;;;;;;;61.10;33.40;;;0.10;99.90;;;;;;5074130;28;20078;-70
2023/01/25 11:50:34;;;;;;;66.40;33.40;;;0.10;99.90;;;;;;5074185;28;20445;-69
2023/01/25 11:53:21;;;;;;;67.25;32.97;;;0.10;99.90;;;;;;5073997;28;20451;-69
2023/01/25 11:55:54;;;;;;;61.70;32.33;;;0.00;99.90;;;;;;5073962;28;20044;-69
2023/01/25 11:58:49;;;;;;;61.15;32.72;;;0.10;99.90;;;;;;5073853;28;20048;-69
2023/01/25 12:01:46;;;;;;;63.22;32.63;;;0.20;99.90;;;;;;5073898;28;20049;-69
2023/01/25 12:04:36;;;;;;;67.80;33.55;;;0.30;99.90;;;;;;5073782;28;20044;-69
2023/01/25 12:07:04;;;;;;;68.57;35.00;;;0.20;99.90;;;;;;5073712;28;20445;-69
2023/01/25 12:09:55;;;;;;;58.90;33.10;;;0.30;99.90;;;;;;5073588;28;20171;-69
2023/01/25 12:12:33;;;;;;;65.90;33.17;;;0.40;99.90;;;;;;5057241;28;20102;-69
2023/01/25 12:15:36;;;;;;;59.22;32.20;;;0.30;99.90;;;;;;5074365;28;20055;-69
2023/01/25 12:18:13;;;;;;;67.30;33.20;;;0.40;99.90;;;;;;5073540;28;20044;-69
2023/01/25 12:20:46;;;;;;;63.70;34.15;;;0.40;99.90;;;;;;5073996;28;20041;-69
2023/01/25 12:23:37;;;;;;;63.47;33.65;;;0.30;99.90;;;;;;5073432;28;20072;-69
2023/01/25 12:26:25;;;;;;;59.58;30.65;;;0.30;99.90;;;;;;5073356;28;20044;-69
2023/01/25 12:29:15;;;;;;;60.40;30.42;;;0.20;99.90;;;;;;5073314;28;20064;-69
2023/01/25 12:31:56;;;;;;;68.93;33.83;;;0.10;99.90;;;;;;5073510;28;20505;-69
2023/01/25 12:34:31;;;;;;;69.53;32.63;;;0.10;99.90;;;;;;5073432;28;20036;-69
2023/01/25 12:37:04;;;;;;;67.30;32.65;;;0.20;99.90;;;;;;5073069;28;20044;-69
2023/01/25 12:39:39;;;;;;;44.42;23.60;;;0.20;99.90;;;;;;5074798;28;20041;-69
2023/01/25 12:42:22;;;;;;;56.25;31.27;;;0.30;99.90;;;;;;5073053;28;20044;-69
2023/01/25 12:45:09;;;;;;;67.72;32.97;;;0.30;99.90;;;;;;5073029;28;20033;-69
2023/01/25 12:47:42;;;;;;;65.50;31.85;;;0.30;99.90;;;;;;5072941;28;20055;-69
2023/01/25 12:50:19;;;;;;;58.70;31.30;;;0.40;99.90;;;;;;5072719;28;20123;-69
2023/01/25 12:52:53;;;;;;;65.65;33.72;;;0.30;99.90;;;;;;5072852;28;20049;-69
2023/01/25 12:55:19;;;;;;;70.75;34.42;;;0.30;99.90;;;;;;5072796;28;20170;-69